KAPF/APF METAR and TAF weather

Enter ICAO airport designator
Station Type Date Time Source
KAPF METAR 2020/07/11 18:53 UTC NOAA

KAPF 111853Z AUTO 28014G20KT 10SM CLR 32/24 A2994 RMK AO2 SLP137 T03220244


Station Type Date Time Source
KAPF Decoded METAR 2020/07/11 18:53 UTC NOAA

NAPLES MUNICIPAL AIRPORT, FL, United States (KAPF) 26-09N 081-46W
Jul 11, 2020 - 02:53 PM EDT / 2020.07.11 1853 UTC
Wind: from the W (280 degrees) at 16 MPH (14 KT) gusting to 23 MPH (20 KT):0
Visibility: 10 mile(s):0
Sky conditions: clear
Temperature: 90.0 F (32.2 C)
Heat index: 101.5 F (38.6 C):1
Dew Point: 75.9 F (24.4 C)
Relative Humidity: 63%
Pressure (altimeter): 29.94 in. Hg (1013 hPa)
ob: KAPF 111853Z AUTO 28014G20KT 10SM CLR 32/24 A2994 RMK AO2 SLP137 T03220244
cycle: 19

Station Type Date Time Source
KAPF TAF 2020/07/11 18:27 UTC NOAA

TAF KAPF 111724Z 1118/1218 29014KT P6SM VCSH SCT035
FM112300 27010KT P6SM FEW025
FM120200 24005KT P6SM FEW050 SCT250
FM120900 22006KT P6SM VCSH SCT040 SCT250
FM121600 24010KT P6SM SCT040 SCT250

Example: see airport list